Time;durP1;ratioP1;P1;durP2;ratioP2;P2;SDS_P1;SDS_P2;PMS_P1;PMS_P2;Temp;Humidity;BMP_temperature;BMP_pressure;BME280_temperature;BME280_humidity;BME280_pressure;Samples;Min_cycle;Max_cycle;Signal;HPM_P1;HPM_P2
2022/06/29 00:02:20;;;;;;;;;;;;;;;16.76;69.68;101156.50;5045667;28;19931;-78
2022/06/29 00:04:45;;;;;;;;;;;;;;;16.69;70.08;101158.50;5046595;28;19925;-78
2022/06/29 00:07:10;;;;;;;;;;;;;;;16.75;70.53;101158.25;5047276;28;19986;-78
2022/06/29 00:09:36;;;;;;;;;;;;;;;16.75;70.42;101158.25;5024207;28;19955;-78
2022/06/29 00:12:01;;;;;;;;;;;;;;;16.71;69.81;101156.66;5029337;28;19967;-78
2022/06/29 00:14:26;;;;;;;;;;;;;;;16.68;70.56;101159.38;5048323;28;19931;-78
2022/06/29 00:16:52;;;;;;;;;;;;;;;16.68;70.84;101159.38;5046241;28;19920;-77
2022/06/29 00:19:17;;;;;;;;;;;;;;;16.69;70.77;101162.88;5044698;28;19920;-77
2022/06/29 00:21:43;;;;;;;;;;;;;;;16.72;70.44;101158.38;5051255;28;20751;-77
2022/06/29 00:24:08;;;;;;;;;;;;;;;16.68;70.16;101163.75;5048693;28;19978;-77
2022/06/29 00:26:33;;;;;;;;;;;;;;;16.65;70.60;101159.50;5050503;28;20390;-76
2022/06/29 00:28:58;;;;;;;;;;;;;;;16.65;70.76;101162.13;5030940;28;20643;-76
2022/06/29 00:31:24;;;;;;;;;;;;;;;16.69;70.46;101160.25;5044902;28;19936;-76
2022/06/29 00:33:49;;;;;;;;;;;;;;;16.63;70.30;101163.94;5048502;28;20498;-76
2022/06/29 00:36:14;;;;;;;;;;;;;;;16.62;70.58;101158.75;5054209;28;19931;-77
2022/06/29 00:38:40;;;;;;;;;;;;;;;16.60;71.01;101166.69;5053530;28;19928;-77
2022/06/29 00:41:05;;;;;;;;;;;;;;;16.63;71.04;101161.31;5044799;28;19932;-78
2022/06/29 00:43:38;;;;;;;;;;;;;;;16.64;70.69;101162.19;5042854;28;19925;-78
2022/06/29 00:46:04;;;;;;;;;;;;;;;16.56;71.79;101146.75;5031224;28;19979;-78
2022/06/29 00:48:29;;;;;;;;;;;;;;;16.61;71.22;101155.28;5049351;28;19994;-79
2022/06/29 00:50:55;;;;;;;;;;;;;;;16.63;71.23;101149.97;5050098;28;20384;-78
2022/06/29 00:53:21;;;;;;;;;;;;;;;16.56;71.74;101146.75;5040867;28;19964;-78
2022/06/29 00:55:47;;;;;;;;;;;;;;;16.56;71.27;101143.25;5049572;28;19994;-78
2022/06/29 00:58:15;;;;;;;;;;;;;;;16.58;71.07;101138.81;5049983;28;19917;-78
2022/06/29 01:00:41;;;;;;;;;;;;;;;16.53;71.07;101144.22;5045159;28;19917;-79
2022/06/29 01:03:07;;;;;;;;;;;;;;;16.52;70.90;101143.38;5044632;28;20380;-79
2022/06/29 01:05:33;;;;;;;;;;;;;;;16.52;71.79;101139.94;5050479;28;19916;-77
2022/06/29 01:07:58;;;;;;;;;;;;;;;16.51;71.69;101140.84;5050339;28;19936;-77
2022/06/29 01:10:24;;;;;;;;;;;;;;;16.51;71.87;101133.81;5048168;28;19933;-76
2022/06/29 01:12:51;;;;;;;;;;;;;;;16.52;71.55;101138.13;5050549;28;20376;-76
2022/06/29 01:15:16;;;;;;;;;;;;;;;16.45;71.45;101130.59;5044367;28;19921;-76
2022/06/29 01:17:42;;;;;;;;;;;;;;;16.43;71.80;101135.88;5048056;28;19928;-77
2022/06/29 01:20:08;;;;;;;;;;;;;;;16.42;71.71;101139.44;5049245;28;19932;-77
2022/06/29 01:22:33;;;;;;;;;;;;;;;16.38;71.90;101139.59;5046812;28;19975;-77
2022/06/29 01:24:59;;;;;;;;;;;;;;;16.41;71.00;101139.47;5043723;28;19960;-77
2022/06/29 01:27:24;;;;;;;;;;;;;;;16.42;71.64;101141.19;5043921;28;19956;-77
2022/06/29 01:29:50;;;;;;;;;;;;;;;16.35;71.97;101131.84;5049669;28;19921;-77
2022/06/29 01:32:15;;;;;;;;;;;;;;;16.39;70.98;101138.69;5050413;28;19964;-77
2022/06/29 01:34:41;;;;;;;;;;;;;;;16.35;71.25;101130.06;5045009;28;19924;-77
2022/06/29 01:37:07;;;;;;;;;;;;;;;16.34;71.34;101125.75;5046342;28;19925;-77
2022/06/29 01:39:32;;;;;;;;;;;;;;;16.34;71.53;101123.13;5039996;28;19916;-79
2022/06/29 01:41:58;;;;;;;;;;;;;;;16.36;70.67;101118.69;5039511;28;19924;-78
2022/06/29 01:44:23;;;;;;;;;;;;;;;16.32;71.59;101127.56;5030263;28;19951;-79
2022/06/29 01:46:49;;;;;;;;;;;;;;;16.33;71.36;101123.19;5041429;28;19963;-79
2022/06/29 01:49:14;;;;;;;;;;;;;;;16.30;71.45;101120.69;5044902;28;19932;-79
2022/06/29 01:51:40;;;;;;;;;;;;;;;16.29;71.37;101124.22;5046471;28;19928;-79
2022/06/29 01:54:06;;;;;;;;;;;;;;;16.27;70.94;101119.03;5044107;28;20313;-79
2022/06/29 01:56:31;;;;;;;;;;;;;;;16.29;70.74;101116.34;5044316;28;20354;-78
2022/06/29 01:58:56;;;;;;;;;;;;;;;16.27;70.79;101119.03;5036523;28;20539;-79
2022/06/29 02:01:22;;;;;;;;;;;;;;;16.24;70.92;101110.44;5042207;28;20019;-78
2022/06/29 02:03:47;;;;;;;;;;;;;;;16.31;71.27;101112.75;5044157;28;19932;-79
2022/06/29 02:06:13;;;;;;;;;;;;;;;16.26;71.51;101108.59;5041621;28;19986;-79
2022/06/29 02:08:38;;;;;;;;;;;;;;;16.27;71.26;101105.06;5027035;28;19924;-76
2022/06/29 02:11:04;;;;;;;;;;;;;;;16.25;71.04;101099.91;5042634;28;20062;-76
2022/06/29 02:13:29;;;;;;;;;;;;;;;16.27;70.96;101091.97;5041600;28;20056;-76
2022/06/29 02:15:55;;;;;;;;;;;;;;;16.24;70.95;101098.19;5035377;28;19925;-79
2022/06/29 02:18:20;;;;;;;;;;;;;;;16.22;70.27;101089.53;5041116;28;19929;-78
2022/06/29 02:20:46;;;;;;;;;;;;;;;16.18;70.36;101095.81;5042032;28;19925;-76
2022/06/29 02:23:12;;;;;;;;;;;;;;;16.18;70.12;101090.56;5039542;28;19932;-77
2022/06/29 02:25:37;;;;;;;;;;;;;;;16.18;70.84;101092.34;5047784;28;20011;-77
2022/06/29 02:28:03;;;;;;;;;;;;;;;16.08;70.42;101089.19;5042658;28;19917;-77
2022/06/29 02:35:56;;;;;;;;;;;;;;;16.10;70.86;101095.25;5046626;28;19986;-77
2022/06/29 02:38:21;;;;;;;;;;;;;;;16.14;71.18;101086.34;5044634;28;20365;-77
2022/06/29 02:40:46;;;;;;;;;;;;;;;16.16;70.97;101088.94;5043449;28;19924;-77
2022/06/29 02:43:12;;;;;;;;;;;;;;;16.16;71.00;101087.16;5037507;28;19929;-77
2022/06/29 02:45:37;;;;;;;;;;;;;;;16.21;70.46;101087.81;5047442;28;19920;-77
2022/06/29 02:48:02;;;;;;;;;;;;;;;16.11;70.17;101088.22;5052121;28;20233;-77
2022/06/29 02:50:28;;;;;;;;;;;;;;;16.17;70.45;101082.75;5046071;28;19971;-78
2022/06/29 02:52:53;;;;;;;;;;;;;;;16.19;70.45;101088.81;5044421;28;20328;-76
2022/06/29 02:55:18;;;;;;;;;;;;;;;16.13;70.36;101082.03;5010510;28;20024;-76
2022/06/29 02:57:44;;;;;;;;;;;;;;;16.12;70.43;101087.31;5041049;28;19921;-76
2022/06/29 03:00:10;;;;;;;;;;;;;;;16.10;70.59;101083.91;5045354;28;20457;-76
2022/06/29 03:02:35;;;;;;;;;;;;;;;16.10;70.33;101079.53;5040753;28;19928;-75
2022/06/29 03:05:00;;;;;;;;;;;;;;;16.06;70.68;101079.69;5042467;28;19920;-76
2022/06/29 03:07:26;;;;;;;;;;;;;;;16.05;70.56;101072.75;5041343;28;19936;-76
2022/06/29 03:09:51;;;;;;;;;;;;;;;15.99;70.68;101076.44;5033401;28;20337;-76
2022/06/29 03:12:17;;;;;;;;;;;;;;;16.03;70.59;101071.94;5045065;28;19933;-76
2022/06/29 03:14:42;;;;;;;;;;;;;;;16.05;71.32;101068.34;5044409;28;19920;-76
2022/06/29 03:17:08;;;;;;;;;;;;;;;16.05;71.22;101067.50;5038138;28;19944;-76
2022/06/29 03:19:34;;;;;;;;;;;;;;;16.08;71.20;101072.63;5041856;28;20490;-75
2022/06/29 03:21:59;;;;;;;;;;;;;;;16.01;71.00;101072.03;5025320;28;19928;-76
2022/06/29 03:24:25;;;;;;;;;;;;;;;16.10;70.79;101065.56;5040598;28;20004;-75
2022/06/29 03:26:50;;;;;;;;;;;;;;;16.09;71.22;101064.72;5035289;28;19926;-76
2022/06/29 03:29:15;;;;;;;;;;;;;;;16.06;71.56;101061.34;5041802;28;20538;-76
2022/06/29 03:31:40;;;;;;;;;;;;;;;16.14;70.90;101061.91;5041419;28;20392;-77
2022/06/29 03:34:06;;;;;;;;;;;;;;;16.03;71.14;101064.94;5040024;28;19920;-76
2022/06/29 03:36:31;;;;;;;;;;;;;;;16.09;71.46;101059.47;5047095;28;20619;-76
2022/06/29 03:38:56;;;;;;;;;;;;;;;15.99;71.95;101055.50;5043552;28;19924;-79
2022/06/29 03:41:22;;;;;;;;;;;;;;;16.02;71.39;101060.63;5036209;28;20039;-79
2022/06/29 03:43:47;;;;;;;;;;;;;;;16.07;71.11;101056.06;5039269;28;19931;-79
2022/06/29 03:46:12;;;;;;;;;;;;;;;16.05;71.34;101068.34;5041624;28;19972;-79
2022/06/29 03:48:38;;;;;;;;;;;;;;;16.08;71.28;101059.50;5045366;28;19967;-79
2022/06/29 03:51:03;;;;;;;;;;;;;;;16.11;71.03;101052.41;5046552;28;19929;-79
2022/06/29 03:53:28;;;;;;;;;;;;;;;16.16;70.42;101057.47;5042592;28;19971;-79
2022/06/29 03:55:54;;;;;;;;;;;;;;;16.19;70.35;101046.88;5043338;28;19921;-79
2022/06/29 03:58:19;;;;;;;;;;;;;;;16.22;70.80;101054.63;5046332;28;19926;-79
2022/06/29 04:00:44;;;;;;;;;;;;;;;16.15;71.31;101046.13;5040807;28;19940;-78
2022/06/29 04:03:10;;;;;;;;;;;;;;;16.20;71.63;101049.41;5045367;28;19924;-78
2022/06/29 04:05:35;;;;;;;;;;;;;;;16.14;72.40;101043.56;5045468;28;19928;-79
2022/06/29 04:08:00;;;;;;;;;;;;;;;16.20;72.00;101038.06;5050322;28;19924;-79
2022/06/29 04:10:26;;;;;;;;;;;;;;;16.20;72.28;101032.81;5046412;28;19925;-78
2022/06/29 04:12:51;;;;;;;;;;;;;;;16.16;72.72;101041.75;5024973;28;19951;-78
2022/06/29 04:15:16;;;;;;;;;;;;;;;16.20;72.45;101043.31;5045357;28;20753;-77
2022/06/29 04:17:42;;;;;;;;;;;;;;;16.18;73.24;101039.91;5046351;28;19920;-77
2022/06/29 04:20:07;;;;;;;;;;;;;;;16.14;73.49;101030.44;5024931;28;19983;-77
2022/06/29 04:22:33;;;;;;;;;;;;;;;16.11;73.97;101036.66;5047796;28;20434;-79
2022/06/29 04:24:59;;;;;;;;;;;;;;;16.21;73.48;101037.16;5043957;28;20024;-78
2022/06/29 04:27:24;;;;;;;;;;;;;;;16.14;73.51;101041.78;5041107;28;19921;-79
2022/06/29 04:29:49;;;;;;;;;;;;;;;16.14;73.52;101043.56;5047485;28;19921;-78
2022/06/29 04:32:15;;;;;;;;;;;;;;;16.08;73.45;101046.41;5046167;28;19970;-78
2022/06/29 04:34:40;;;;;;;;;;;;;;;16.15;72.70;101047.88;5046256;28;19927;-78
2022/06/29 04:37:06;;;;;;;;;;;;;;;16.20;72.54;101038.06;5052284;28;19978;-78
2022/06/29 04:39:31;;;;;;;;;;;;;;;16.18;72.74;101053.88;5035260;28;19917;-78
2022/06/29 04:41:56;;;;;;;;;;;;;;;16.21;72.92;101048.50;5042540;28;19999;-79
2022/06/29 04:44:21;;;;;;;;;;;;;;;16.24;73.05;101042.28;5044372;28;19952;-76
2022/06/29 04:46:47;;;;;;;;;;;;;;;16.26;73.42;101041.31;5052574;28;19931;-77
2022/06/29 04:49:12;;;;;;;;;;;;;;;16.15;73.36;101040.03;5046871;28;19913;-77
2022/06/29 04:51:38;;;;;;;;;;;;;;;16.15;72.80;101040.88;5049299;28;19920;-77
2022/06/29 04:54:03;;;;;;;;;;;;;;;16.20;72.42;101040.69;5028606;28;20007;-77
2022/06/29 04:56:33;;;;;;;;;;;;;;;16.21;72.49;101038.03;5052455;28;19978;-77
2022/06/29 04:58:59;;;;;;;;;;;;;;;16.24;73.26;101032.66;5046134;28;19925;-76
2022/06/29 05:01:25;;;;;;;;;;;;;;;16.31;73.07;101033.28;5045381;28;19925;-76
2022/06/29 05:03:51;;;;;;;;;;;;;;;16.30;72.98;101039.41;5043393;28;19963;-76
2022/06/29 05:06:16;;;;;;;;;;;;;;;16.27;72.39;101027.28;5047276;28;19956;-76
2022/06/29 05:08:42;;;;;;;;;;;;;;;16.39;71.35;101031.19;5046865;28;20383;-76
2022/06/29 05:11:07;;;;;;;;;;;;;;;16.38;71.51;101030.31;5047466;28;19928;-77
2022/06/29 05:13:33;;;;;;;;;;;;;;;16.39;70.99;101031.19;5048836;28;20277;-77
2022/06/29 05:15:58;;;;;;;;;;;;;;;16.37;71.06;101035.66;5049914;28;19928;-77
2022/06/29 05:18:24;;;;;;;;;;;;;;;16.47;70.39;101023.84;5050470;28;20319;-77
2022/06/29 05:20:49;;;;;;;;;;;;;;;16.36;70.29;101020.81;5048814;28;19921;-77
2022/06/29 05:23:15;;;;;;;;;;;;;;;16.38;69.76;101014.59;5049139;28;20342;-77
2022/06/29 05:25:40;;;;;;;;;;;;;;;16.44;71.11;101022.22;5048266;28;19920;-77
2022/06/29 05:28:06;;;;;;;;;;;;;;;16.56;71.30;101022.63;5046179;28;19936;-77
2022/06/29 05:30:31;;;;;;;;;;;;;;;16.53;72.12;101026.22;5035070;28;20039;-77
2022/06/29 05:32:56;;;;;;;;;;;;;;;16.44;71.65;101019.59;5034941;28;19982;-77
2022/06/29 05:35:22;;;;;;;;;;;;;;;16.56;70.59;101018.22;5044479;28;19956;-79
2022/06/29 05:37:47;;;;;;;;;;;;;;;16.49;70.88;101022.88;5028392;28;19921;-78
2022/06/29 05:40:13;;;;;;;;;;;;;;;16.50;71.93;101032.44;5043244;28;21915;-78
2022/06/29 05:42:38;;;;;;;;;;;;;;;16.54;71.38;101041.06;5038887;28;20010;-80
2022/06/29 05:45:03;;;;;;;;;;;;;;;16.56;69.96;101039.22;5038045;28;19920;-79
2022/06/29 05:47:29;;;;;;;;;;;;;;;16.56;71.49;101039.22;5041726;28;19925;-77
2022/06/29 05:49:57;;;;;;;;;;;;;;;16.60;70.74;101038.19;5046697;28;20439;-77
2022/06/29 05:52:23;;;;;;;;;;;;;;;16.48;70.41;101041.31;5046580;28;19989;-77
2022/06/29 05:54:48;;;;;;;;;;;;;;;16.53;70.96;101044.56;5043113;28;19960;-75
2022/06/29 05:57:13;;;;;;;;;;;;;;;16.59;69.78;101039.09;5029727;28;19928;-75
2022/06/29 05:59:39;;;;;;;;;;;;;;;16.58;69.59;101028.66;5028258;28;20035;-77
2022/06/29 06:02:04;;;;;;;;;;;;;;;16.59;68.58;101038.22;5030098;28;19928;-77
2022/06/29 06:04:29;;;;;;;;;;;;;;;16.59;69.33;101033.84;5048891;28;19924;-77
2022/06/29 06:06:55;;;;;;;;;;;;;;;16.60;69.94;101032.06;5051966;28;19944;-77
2022/06/29 06:09:25;;;;;;;;;;;;;;;16.57;70.60;101038.31;5044967;28;19921;-78
2022/06/29 06:11:51;;;;;;;;;;;;;;;16.57;70.85;101033.06;5027845;28;19931;-78
2022/06/29 06:14:16;;;;;;;;;;;;;;;16.59;70.17;101035.59;5048394;28;19921;-78
2022/06/29 06:16:41;;;;;;;;;;;;;;;16.57;68.88;101034.81;5045143;28;19931;-77
2022/06/29 06:19:07;;;;;;;;;;;;;;;16.59;69.33;101035.59;5031868;28;19964;-77
2022/06/29 06:21:32;;;;;;;;;;;;;;;16.61;70.00;101034.63;5027917;28;20530;-79
2022/06/29 06:23:57;;;;;;;;;;;;;;;16.62;71.16;101027.59;5043985;28;20272;-79
2022/06/29 06:26:22;;;;;;;;;;;;;;;16.64;70.82;101031.88;5040882;28;19924;-79
2022/06/29 06:28:50;;;;;;;;;;;;;;;16.67;71.25;101029.13;5043754;28;20384;-76
2022/06/29 06:31:15;;;;;;;;;;;;;;;16.63;71.13;101027.56;5034817;28;19928;-79
2022/06/29 06:33:41;;;;;;;;;;;;;;;16.68;71.81;101027.34;5043722;28;20667;-78
2022/06/29 06:36:06;;;;;;;;;;;;;;;16.66;71.69;101022.19;5047335;28;19933;-79
2022/06/29 06:38:31;;;;;;;;;;;;;;;16.66;70.75;101022.19;5043457;28;20527;-77
2022/06/29 06:43:41;;;;;;;;;;;;;;;16.72;71.05;101021.97;5042857;28;19928;-77
2022/06/29 06:46:06;;;;;;;;;;;;;;;16.70;71.68;101023.78;5015659;28;19928;-77
2022/06/29 06:48:32;;;;;;;;;;;;;;;16.74;72.80;101024.50;5039273;28;19924;-78
2022/06/29 06:50:57;;;;;;;;;;;;;;;16.76;72.82;101020.06;5048349;28;20031;-78
2022/06/29 06:53:23;;;;;;;;;;;;;;;16.75;73.08;101027.06;5049240;28;19917;-77
2022/06/29 06:55:48;;;;;;;;;;;;;;;16.73;72.92;101023.66;5045537;28;20490;-77
2022/06/29 06:58:14;;;;;;;;;;;;;;;16.75;73.70;101029.69;5040131;28;19951;-77
2022/06/29 07:00:39;;;;;;;;;;;;;;;16.78;73.17;101031.34;5039117;28;19928;-77
2022/06/29 07:03:04;;;;;;;;;;;;;;;16.81;73.22;101028.59;5027282;28;19967;-77
2022/06/29 07:05:30;;;;;;;;;;;;;;;16.80;72.82;101038.22;5041238;28;19931;-77
2022/06/29 07:07:55;;;;;;;;;;;;;;;16.86;72.77;101034.47;5044165;28;19932;-77
2022/06/29 07:10:20;;;;;;;;;;;;;;;16.87;72.35;101030.94;5041456;28;19928;-77
2022/06/29 07:12:46;;;;;;;;;;;;;;;16.85;72.11;101035.38;5042757;28;19932;-77
2022/06/29 07:15:11;;;;;;;;;;;;;;;16.87;71.29;101034.44;5038032;28;19924;-77
2022/06/29 07:17:37;;;;;;;;;;;;;;;16.90;70.88;101029.06;5029158;28;19965;-77
2022/06/29 07:20:02;;;;;;;;;;;;;;;16.93;71.18;101028.91;5039929;28;20788;-77
2022/06/29 07:22:27;;;;;;;;;;;;;;;17.00;72.43;101032.09;5043252;28;19929;-77
2022/06/29 07:24:53;;;;;;;;;;;;;;;16.99;72.36;101033.91;5044029;28;19928;-77
2022/06/29 07:27:18;;;;;;;;;;;;;;;16.98;71.78;101026.09;5029482;28;19948;-78
2022/06/29 07:29:43;;;;;;;;;;;;;;;16.99;71.27;101033.91;5047006;28;20745;-77
2022/06/29 07:32:09;;;;;;;;;;;;;;;16.99;71.41;101039.16;5050728;28;19925;-77
2022/06/29 07:34:34;;;;;;;;;;;;;;;17.01;71.06;101042.56;5033311;28;20019;-78
2022/06/29 07:37:00;;;;;;;;;;;;;;;17.05;71.57;101044.13;5050919;28;19920;-77
2022/06/29 07:39:25;;;;;;;;;;;;;;;17.06;70.43;101037.94;5045569;28;19927;-77
2022/06/29 07:41:50;;;;;;;;;;;;;;;17.06;70.07;101026.59;5028788;28;19935;-77
2022/06/29 07:44:16;;;;;;;;;;;;;;;17.08;71.51;101036.09;5047423;28;20008;-77
2022/06/29 07:46:41;;;;;;;;;;;;;;;17.07;70.69;101033.56;5045535;28;20053;-77
2022/06/29 07:49:06;;;;;;;;;;;;;;;17.10;72.46;101024.69;5047250;28;20011;-77
2022/06/29 07:51:32;;;;;;;;;;;;;;;17.06;71.26;101027.44;5045920;28;19924;-77
2022/06/29 07:53:57;;;;;;;;;;;;;;;17.10;70.91;101027.31;5046129;28;19924;-77
2022/06/29 07:56:22;;;;;;;;;;;;;;;17.10;71.22;101028.19;5047218;28;20012;-77
2022/06/29 07:58:48;;;;;;;;;;;;;;;17.12;72.28;101023.69;5042585;28;19964;-77
2022/06/29 08:01:13;;;;;;;;;;;;;;;17.16;71.96;101027.91;5044705;28;20004;-77
2022/06/29 08:03:38;;;;;;;;;;;;;;;17.14;69.26;101024.50;5046829;28;20322;-77
2022/06/29 08:06:05;;;;;;;;;;;;;;;17.17;69.75;101026.13;5048386;28;19925;-77
2022/06/29 08:08:31;;;;;;;;;;;;;;;17.20;70.01;101026.00;5051064;28;20448;-77
2022/06/29 08:10:56;;;;;;;;;;;;;;;17.18;70.78;101033.94;5043203;28;19928;-77
2022/06/29 08:13:21;;;;;;;;;;;;;;;17.19;69.68;101030.41;5043821;28;19928;-77
2022/06/29 08:15:47;;;;;;;;;;;;;;;17.21;67.96;101022.44;5042463;28;19921;-77
2022/06/29 08:18:13;;;;;;;;;;;;;;;17.26;68.01;101028.38;5045732;28;19924;-77
2022/06/29 08:20:38;;;;;;;;;;;;;;;17.29;68.75;101028.22;5042893;28;19929;-77
2022/06/29 08:23:04;;;;;;;;;;;;;;;17.32;68.78;101022.84;5028140;28;20011;-78
2022/06/29 08:25:31;;;;;;;;;;;;;;;17.34;68.29;101024.47;5042597;28;19928;-77
2022/06/29 08:27:56;;;;;;;;;;;;;;;17.39;69.05;101021.63;5047170;28;19947;-77
2022/06/29 08:30:22;;;;;;;;;;;;;;;17.43;68.82;101023.19;5029911;28;20641;-77
2022/06/29 08:32:47;;;;;;;;;;;;;;;17.45;67.17;101018.72;5034249;28;19929;-78
2022/06/29 08:35:13;;;;;;;;;;;;;;;17.47;69.14;101015.09;5048815;28;19925;-78
2022/06/29 08:37:38;;;;;;;;;;;;;;;17.53;67.31;101016.63;5046459;28;20370;-78
2022/06/29 08:40:08;;;;;;;;;;;;;;;17.54;67.76;101011.28;5051538;28;19955;-77
2022/06/29 08:42:34;;;;;;;;;;;;;;;17.54;64.49;101013.91;5050644;28;20449;-77
2022/06/29 08:45:00;;;;;;;;;;;;;;;17.58;66.76;101019.88;5054381;28;19924;-78
2022/06/29 08:47:26;;;;;;;;;;;;;;;17.60;65.19;101018.06;5050149;28;19917;-78
2022/06/29 08:49:51;;;;;;;;;;;;;;;17.63;66.76;101017.91;5048142;28;20299;-77
2022/06/29 08:52:18;;;;;;;;;;;;;;;17.66;67.60;101019.53;5041222;28;19939;-77
2022/06/29 08:54:46;;;;;;;;;;;;;;;17.68;66.02;101017.72;5045549;28;19921;-77
2022/06/29 08:57:11;;;;;;;;;;;;;;;17.71;67.21;101015.78;5046363;28;19960;-77
2022/06/29 08:59:37;;;;;;;;;;;;;;;17.73;66.08;101021.84;5047854;28;19983;-77
2022/06/29 09:02:03;;;;;;;;;;;;;;;17.76;65.39;101019.06;5049381;28;19921;-77
2022/06/29 09:04:29;;;;;;;;;;;;;;;17.78;67.21;101024.22;5054432;28;19927;-77
2022/06/29 09:06:55;;;;;;;;;;;;;;;17.78;65.94;101026.88;5050559;28;20310;-77
2022/06/29 09:09:21;;;;;;;;;;;;;;;17.80;64.84;101022.41;5044608;28;19929;-77
2022/06/29 09:11:49;;;;;;;;;;;;;;;17.85;66.37;101030.91;5053905;28;20328;-77
2022/06/29 09:14:16;;;;;;;;;;;;;;;17.88;66.62;101025.53;5043143;28;20019;-78
2022/06/29 09:17:01;;;;;;;;;;;;;;;17.88;65.90;101026.38;5044078;28;19962;-78
2022/06/29 09:19:41;;;;;;;;;;;;;;;17.88;66.28;101020.25;5052502;28;19963;-78
2022/06/29 09:22:07;;;;;;;;;;;;;;;17.94;66.49;101030.50;5050849;28;19917;-78
2022/06/29 09:24:35;;;;;;;;;;;;;;;17.93;67.04;101034.03;5045858;28;19932;-78
2022/06/29 09:27:02;;;;;;;;;;;;;;;17.93;66.96;101028.78;5030785;28;19949;-77
2022/06/29 09:29:32;;;;;;;;;;;;;;;17.99;67.46;101031.97;5027201;28;19920;-77
2022/06/29 09:32:04;;;;;;;;;;;;;;;17.99;65.54;101031.13;5036130;28;19940;-77
2022/06/29 09:34:29;;;;;;;;;;;;;;;17.99;68.08;101039.00;5044904;28;19948;-78
2022/06/29 09:36:55;;;;;;;;;;;;;;;18.04;67.81;101043.09;5029857;28;20653;-77
2022/06/29 09:39:43;;;;;;;;;;;;;;;18.02;68.33;101049.38;5044791;28;19917;-77
2022/06/29 09:42:16;;;;;;;;;;;;;;;17.96;68.14;101044.41;5032181;28;19925;-77
2022/06/29 09:44:42;;;;;;;;;;;;;;;18.00;66.37;101040.72;5046650;28;19945;-77
2022/06/29 09:47:08;;;;;;;;;;;;;;;17.96;67.27;101039.16;5043510;28;19925;-78
2022/06/29 09:49:35;;;;;;;;;;;;;;;18.01;67.16;101031.88;5026415;28;19929;-77
2022/06/29 09:52:01;;;;;;;;;;;;;;;17.98;67.18;101027.63;5041292;28;19925;-77
2022/06/29 09:54:37;;;;;;;;;;;;;;;18.01;67.39;101024.84;5046728;28;19924;-78
2022/06/29 09:57:03;;;;;;;;;;;;;;;17.98;68.14;101032.03;5030655;28;19928;-77
2022/06/29 10:02:35;;;;;;;;;;;;;;;18.05;68.19;101022.94;5041449;28;19974;-79
2022/06/29 10:05:03;;;;;;;;;;;;;;;18.04;67.41;101022.09;5042950;28;19925;-79
2022/06/29 10:07:30;;;;;;;;;;;;;;;18.01;67.83;101018.75;5045130;28;19966;-79
2022/06/29 10:09:56;;;;;;;;;;;;;;;18.12;65.98;101013.84;5028656;28;20315;-79
2022/06/29 10:15:09;;;;;;;;;;;;;;;18.16;65.91;101010.97;5044272;28;20034;-78
2022/06/29 10:17:34;;;;;;;;;;;;;;;18.23;64.20;101000.16;5047595;28;20394;-78
2022/06/29 10:20:18;;;;;;;;;;;;;;;18.24;64.89;101007.13;5029230;28;21171;-78
2022/06/29 10:22:43;;;;;;;;;;;;;;;18.18;66.76;101009.13;5046428;28;19960;-79
2022/06/29 10:25:10;;;;;;;;;;;;;;;18.13;67.36;101005.00;5043944;28;19960;-79
2022/06/29 10:27:36;;;;;;;;;;;;;;;18.21;65.75;101002.88;5044255;28;19963;-79
2022/06/29 10:30:20;;;;;;;;;;;;;;;18.22;66.04;100996.69;5047031;28;20407;-79
2022/06/29 10:32:46;;;;;;;;;;;;;;;18.28;65.88;101003.41;5041092;28;19971;-79
2022/06/29 10:35:11;;;;;;;;;;;;;;;18.26;66.78;100997.38;5037314;28;19976;-78
2022/06/29 10:37:47;;;;;;;;;;;;;;;18.24;67.80;101004.50;5041576;28;19932;-79
2022/06/29 10:40:24;;;;;;;;;;;;;;;18.34;65.54;100995.22;5039181;28;19921;-79
2022/06/29 10:43:07;;;;;;;;;;;;;;;18.36;66.72;101001.28;5041965;28;19912;-80
2022/06/29 10:45:34;;;;;;;;;;;;;;;18.42;64.07;100995.72;5030350;28;19921;-80
2022/06/29 10:48:01;;;;;;;;;;;;;;;18.54;63.22;100995.13;5042235;28;20520;-80
2022/06/29 10:50:28;;;;;;;;;;;;;;;18.58;62.31;100994.88;5044796;28;19927;-79
2022/06/29 10:53:03;;;;;;;;;;;;;;;18.50;66.08;101002.31;5041326;28;19928;-79
2022/06/29 10:55:29;;;;;;;;;;;;;;;18.57;63.58;100995.81;5027511;28;20311;-79
2022/06/29 10:57:55;;;;;;;;;;;;;;;18.57;65.51;100995.81;5022472;28;19925;-79
2022/06/29 11:00:25;;;;;;;;;;;;;;;18.54;65.04;100992.50;5044546;28;20129;-79
2022/06/29 11:02:50;;;;;;;;;;;;;;;18.55;64.53;100995.03;5043208;28;20418;-78
2022/06/29 11:05:15;;;;;;;;;;;;;;;18.55;64.55;100992.41;5031418;28;19921;-78
2022/06/29 11:13:11;;;;;;;;;;;;;;;18.74;63.95;100976.56;5039422;28;20870;-78
2022/06/29 11:15:40;;;;;;;;;;;;;;;18.75;64.18;100970.34;5043020;28;19921;-79
2022/06/29 11:18:05;;;;;;;;;;;;;;;18.75;62.18;100966.88;5026790;28;20367;-79
2022/06/29 11:20:31;;;;;;;;;;;;;;;18.73;62.20;100959.03;5048426;28;19960;-79
2022/06/29 11:22:56;;;;;;;;;;;;;;;18.62;64.74;100966.66;5043441;28;20450;-79
2022/06/29 11:25:22;;;;;;;;;;;;;;;18.84;61.16;100956.69;5042416;28;19928;-79
2022/06/29 11:27:48;;;;;;;;;;;;;;;18.70;63.96;100959.19;5027172;28;20453;-79
2022/06/29 11:30:19;;;;;;;;;;;;;;;18.85;60.71;100954.91;5047936;28;19929;-80
2022/06/29 11:32:46;;;;;;;;;;;;;;;18.77;62.28;100952.69;5030264;28;19929;-79
2022/06/29 11:35:16;;;;;;;;;;;;;;;18.45;67.08;100959.59;5041594;28;19947;-79
2022/06/29 11:37:47;;;;;;;;;;;;;;;18.48;66.92;100962.06;5050029;28;19921;-79
2022/06/29 11:40:13;;;;;;;;;;;;;;;18.69;63.73;100954.84;5036750;28;20374;-79
2022/06/29 11:45:22;;;;;;;;;;;;;;;18.64;63.83;100949.00;5043496;28;19983;-79
2022/06/29 11:47:51;;;;;;;;;;;;;;;18.48;65.98;100946.28;5040619;28;19921;-78
2022/06/29 11:50:16;;;;;;;;;;;;;;;18.62;64.13;100938.56;5046408;28;20002;-78
2022/06/29 11:52:44;;;;;;;;;;;;;;;18.62;63.22;100932.44;5048643;28;19963;-79
2022/06/29 11:55:10;;;;;;;;;;;;;;;18.56;63.58;100932.75;5049542;28;19939;-79
2022/06/29 11:57:35;;;;;;;;;;;;;;;18.43;67.72;100929.00;5048865;28;20401;-78
2022/06/29 12:00:08;;;;;;;;;;;;;;;18.58;61.40;100915.97;5029151;28;20382;-78
2022/06/29 12:02:36;;;;;;;;;;;;;;;18.48;64.06;100919.16;5033279;28;19948;-78
2022/06/29 12:05:02;;;;;;;;;;;;;;;18.77;61.81;100915.00;5047979;28;19952;-78
2022/06/29 12:07:29;;;;;;;;;;;;;;;18.89;60.90;100911.72;5049866;28;19932;-78
2022/06/29 12:09:54;;;;;;;;;;;;;;;18.89;59.46;100909.09;5051172;28;19939;-78
2022/06/29 12:12:20;;;;;;;;;;;;;;;18.68;61.19;100906.66;5046564;28;20424;-77
2022/06/29 12:14:45;;;;;;;;;;;;;;;18.68;60.49;100897.91;5040410;28;19968;-77
2022/06/29 12:17:13;;;;;;;;;;;;;;;18.70;61.59;100898.69;5043471;28;19921;-77
2022/06/29 12:19:38;;;;;;;;;;;;;;;18.75;61.58;100903.72;5044927;28;20275;-77
2022/06/29 12:22:04;;;;;;;;;;;;;;;18.84;59.72;100896.16;5048362;28;19916;-77
2022/06/29 12:24:29;;;;;;;;;;;;;;;18.79;59.98;100890.31;5045923;28;19971;-77
2022/06/29 12:26:54;;;;;;;;;;;;;;;18.47;63.73;100894.63;5045987;28;19928;-78
2022/06/29 12:29:20;;;;;;;;;;;;;;;18.76;61.95;100894.88;5030393;28;19950;-78
2022/06/29 12:31:45;;;;;;;;;;;;;;;18.72;62.90;100882.81;5028286;28;19964;-78
2022/06/29 12:34:11;;;;;;;;;;;;;;;18.67;63.30;100890.94;5047060;28;19920;-79
2022/06/29 12:36:37;;;;;;;;;;;;;;;18.79;62.16;100887.66;5046289;28;20149;-80
2022/06/29 12:39:03;;;;;;;;;;;;;;;18.96;60.93;100878.84;5042986;28;20020;-79
2022/06/29 12:41:29;;;;;;;;;;;;;;;18.56;64.25;100886.25;5044550;28;20277;-79
2022/06/29 12:43:54;;;;;;;;;;;;;;;18.48;65.15;100885.78;5047470;28;19921;-80
2022/06/29 12:46:20;;;;;;;;;;;;;;;18.55;65.11;100889.81;5046753;28;19967;-79
2022/06/29 12:48:45;;;;;;;;;;;;;;;18.51;64.49;100884.78;5048552;28;20303;-79
2022/06/29 12:51:10;;;;;;;;;;;;;;;18.58;63.09;100883.53;5025903;28;19968;-80
2022/06/29 12:53:36;;;;;;;;;;;;;;;18.51;64.67;100880.34;5047322;28;19978;-79